sensor_id;sensor_type;location;lat;lon;timestamp;P1;durP1;ratioP1;P2;durP2;ratioP2
53421;SDS011;39319;52.944;5.928;2022-08-30T00:01:11;10.10;;;4.28;;
53421;SDS011;39319;52.944;5.928;2022-08-30T00:03:42;7.88;;;3.78;;
53421;SDS011;39319;52.944;5.928;2022-08-30T00:06:10;9.68;;;4.75;;
53421;SDS011;39319;52.944;5.928;2022-08-30T00:08:37;7.00;;;4.22;;
53421;SDS011;39319;52.944;5.928;2022-08-30T00:11:05;9.82;;;4.70;;
53421;SDS011;39319;52.944;5.928;2022-08-30T00:13:34;8.05;;;4.60;;
53421;SDS011;39319;52.944;5.928;2022-08-30T00:16:04;7.28;;;4.07;;
53421;SDS011;39319;52.944;5.928;2022-08-30T00:18:31;10.60;;;4.32;;
53421;SDS011;39319;52.944;5.928;2022-08-30T00:20:58;8.98;;;4.78;;
53421;SDS011;39319;52.944;5.928;2022-08-30T00:23:24;8.57;;;4.20;;
53421;SDS011;39319;52.944;5.928;2022-08-30T00:25:50;8.82;;;4.70;;
53421;SDS011;39319;52.944;5.928;2022-08-30T00:28:16;8.75;;;4.35;;
53421;SDS011;39319;52.944;5.928;2022-08-30T00:30:42;9.53;;;4.30;;
53421;SDS011;39319;52.944;5.928;2022-08-30T00:33:09;8.13;;;4.68;;
53421;SDS011;39319;52.944;5.928;2022-08-30T00:35:35;9.88;;;4.78;;
53421;SDS011;39319;52.944;5.928;2022-08-30T00:38:02;8.38;;;4.53;;
53421;SDS011;39319;52.944;5.928;2022-08-30T00:40:28;9.85;;;4.93;;
53421;SDS011;39319;52.944;5.928;2022-08-30T00:42:55;8.30;;;4.60;;
53421;SDS011;39319;52.944;5.928;2022-08-30T00:45:29;12.70;;;4.63;;
53421;SDS011;39319;52.944;5.928;2022-08-30T00:47:56;9.88;;;4.90;;
53421;SDS011;39319;52.944;5.928;2022-08-30T00:50:23;8.00;;;4.60;;
53421;SDS011;39319;52.944;5.928;2022-08-30T00:52:55;6.78;;;4.18;;
53421;SDS011;39319;52.944;5.928;2022-08-30T00:55:24;9.10;;;4.60;;
53421;SDS011;39319;52.944;5.928;2022-08-30T00:57:51;9.02;;;4.82;;
53421;SDS011;39319;52.944;5.928;2022-08-30T01:00:21;9.43;;;5.22;;
53421;SDS011;39319;52.944;5.928;2022-08-30T01:02:48;9.13;;;5.18;;
53421;SDS011;39319;52.944;5.928;2022-08-30T01:05:13;9.20;;;4.70;;
53421;SDS011;39319;52.944;5.928;2022-08-30T01:07:40;8.60;;;4.68;;
53421;SDS011;39319;52.944;5.928;2022-08-30T01:10:08;9.77;;;4.72;;
53421;SDS011;39319;52.944;5.928;2022-08-30T01:12:36;9.15;;;4.72;;
53421;SDS011;39319;52.944;5.928;2022-08-30T01:15:03;8.82;;;4.68;;
53421;SDS011;39319;52.944;5.928;2022-08-30T01:17:30;9.93;;;5.50;;
53421;SDS011;39319;52.944;5.928;2022-08-30T01:20:00;10.13;;;5.15;;
53421;SDS011;39319;52.944;5.928;2022-08-30T01:25:11;8.70;;;5.07;;
53421;SDS011;39319;52.944;5.928;2022-08-30T01:27:40;9.35;;;5.20;;
53421;SDS011;39319;52.944;5.928;2022-08-30T01:30:10;8.48;;;4.90;;
53421;SDS011;39319;52.944;5.928;2022-08-30T01:32:38;9.48;;;5.00;;
53421;SDS011;39319;52.944;5.928;2022-08-30T01:35:07;9.05;;;5.10;;
53421;SDS011;39319;52.944;5.928;2022-08-30T01:37:35;8.73;;;5.20;;
53421;SDS011;39319;52.944;5.928;2022-08-30T01:40:02;9.93;;;5.13;;
53421;SDS011;39319;52.944;5.928;2022-08-30T01:42:29;9.25;;;5.10;;
53421;SDS011;39319;52.944;5.928;2022-08-30T01:44:55;9.20;;;5.50;;
53421;SDS011;39319;52.944;5.928;2022-08-30T01:47:21;9.48;;;5.05;;
53421;SDS011;39319;52.944;5.928;2022-08-30T01:49:48;8.10;;;4.90;;
53421;SDS011;39319;52.944;5.928;2022-08-30T01:52:14;9.07;;;4.82;;
53421;SDS011;39319;52.944;5.928;2022-08-30T01:54:41;8.93;;;4.63;;
53421;SDS011;39319;52.944;5.928;2022-08-30T01:57:09;10.82;;;5.50;;
53421;SDS011;39319;52.944;5.928;2022-08-30T01:59:39;9.52;;;5.10;;
53421;SDS011;39319;52.944;5.928;2022-08-30T02:02:09;8.70;;;5.03;;
53421;SDS011;39319;52.944;5.928;2022-08-30T02:04:35;8.82;;;5.20;;
53421;SDS011;39319;52.944;5.928;2022-08-30T02:07:01;8.53;;;5.00;;
53421;SDS011;39319;52.944;5.928;2022-08-30T02:09:28;10.70;;;5.43;;
53421;SDS011;39319;52.944;5.928;2022-08-30T02:11:54;8.18;;;4.80;;
53421;SDS011;39319;52.944;5.928;2022-08-30T02:14:20;8.85;;;4.85;;
53421;SDS011;39319;52.944;5.928;2022-08-30T02:16:46;9.55;;;5.43;;
53421;SDS011;39319;52.944;5.928;2022-08-30T02:19:12;8.50;;;5.10;;
53421;SDS011;39319;52.944;5.928;2022-08-30T02:21:39;8.97;;;5.40;;
53421;SDS011;39319;52.944;5.928;2022-08-30T02:24:04;9.57;;;4.97;;
53421;SDS011;39319;52.944;5.928;2022-08-30T02:26:31;9.25;;;5.40;;
53421;SDS011;39319;52.944;5.928;2022-08-30T02:28:56;8.67;;;5.07;;
53421;SDS011;39319;52.944;5.928;2022-08-30T02:31:24;9.13;;;4.97;;
53421;SDS011;39319;52.944;5.928;2022-08-30T02:33:50;8.30;;;4.72;;
53421;SDS011;39319;52.944;5.928;2022-08-30T02:36:17;10.25;;;5.63;;
53421;SDS011;39319;52.944;5.928;2022-08-30T02:38:44;9.05;;;5.20;;
53421;SDS011;39319;52.944;5.928;2022-08-30T02:41:11;8.45;;;5.03;;
53421;SDS011;39319;52.944;5.928;2022-08-30T02:43:36;7.38;;;5.07;;
53421;SDS011;39319;52.944;5.928;2022-08-30T02:46:03;8.32;;;4.97;;
53421;SDS011;39319;52.944;5.928;2022-08-30T02:48:29;9.18;;;5.00;;
53421;SDS011;39319;52.944;5.928;2022-08-30T02:50:55;8.33;;;4.60;;
53421;SDS011;39319;52.944;5.928;2022-08-30T02:53:22;11.18;;;5.50;;
53421;SDS011;39319;52.944;5.928;2022-08-30T02:55:48;10.15;;;5.20;;
53421;SDS011;39319;52.944;5.928;2022-08-30T02:58:13;9.93;;;5.75;;
53421;SDS011;39319;52.944;5.928;2022-08-30T03:00:39;9.07;;;5.35;;
53421;SDS011;39319;52.944;5.928;2022-08-30T03:03:05;9.07;;;5.23;;
53421;SDS011;39319;52.944;5.928;2022-08-30T03:05:32;9.52;;;5.60;;
53421;SDS011;39319;52.944;5.928;2022-08-30T03:07:58;8.15;;;5.03;;
53421;SDS011;39319;52.944;5.928;2022-08-30T03:10:25;8.32;;;5.40;;
53421;SDS011;39319;52.944;5.928;2022-08-30T03:12:53;9.15;;;5.45;;
53421;SDS011;39319;52.944;5.928;2022-08-30T03:15:19;8.03;;;5.40;;
53421;SDS011;39319;52.944;5.928;2022-08-30T03:17:49;8.50;;;5.80;;
53421;SDS011;39319;52.944;5.928;2022-08-30T03:20:19;8.98;;;5.45;;
53421;SDS011;39319;52.944;5.928;2022-08-30T03:22:46;9.20;;;5.75;;
53421;SDS011;39319;52.944;5.928;2022-08-30T03:25:12;9.10;;;5.50;;
53421;SDS011;39319;52.944;5.928;2022-08-30T03:27:38;8.68;;;5.88;;
53421;SDS011;39319;52.944;5.928;2022-08-30T03:30:04;9.05;;;5.95;;
53421;SDS011;39319;52.944;5.928;2022-08-30T03:32:31;9.52;;;5.78;;
53421;SDS011;39319;52.944;5.928;2022-08-30T03:34:57;8.57;;;5.80;;
53421;SDS011;39319;52.944;5.928;2022-08-30T03:37:23;9.68;;;5.45;;
53421;SDS011;39319;52.944;5.928;2022-08-30T03:39:50;8.38;;;5.25;;
53421;SDS011;39319;52.944;5.928;2022-08-30T03:42:16;10.35;;;5.95;;
53421;SDS011;39319;52.944;5.928;2022-08-30T03:44:42;10.05;;;5.68;;
53421;SDS011;39319;52.944;5.928;2022-08-30T03:47:08;9.80;;;6.20;;
53421;SDS011;39319;52.944;5.928;2022-08-30T03:49:34;9.67;;;5.90;;
53421;SDS011;39319;52.944;5.928;2022-08-30T03:52:00;8.80;;;5.10;;
53421;SDS011;39319;52.944;5.928;2022-08-30T03:54:26;8.35;;;5.60;;
53421;SDS011;39319;52.944;5.928;2022-08-30T03:56:52;8.65;;;5.53;;
53421;SDS011;39319;52.944;5.928;2022-08-30T03:59:18;8.98;;;5.65;;
53421;SDS011;39319;52.944;5.928;2022-08-30T04:01:44;8.10;;;4.97;;
53421;SDS011;39319;52.944;5.928;2022-08-30T04:04:12;7.87;;;5.37;;
53421;SDS011;39319;52.944;5.928;2022-08-30T04:06:38;9.15;;;5.47;;
53421;SDS011;39319;52.944;5.928;2022-08-30T04:09:04;7.97;;;5.47;;
53421;SDS011;39319;52.944;5.928;2022-08-30T04:11:30;9.40;;;6.05;;
53421;SDS011;39319;52.944;5.928;2022-08-30T04:13:56;8.18;;;5.65;;
53421;SDS011;39319;52.944;5.928;2022-08-30T04:16:23;8.55;;;5.70;;
53421;SDS011;39319;52.944;5.928;2022-08-30T04:18:50;9.52;;;6.28;;
53421;SDS011;39319;52.944;5.928;2022-08-30T04:21:15;9.50;;;6.27;;
53421;SDS011;39319;52.944;5.928;2022-08-30T04:23:42;8.93;;;6.35;;
53421;SDS011;39319;52.944;5.928;2022-08-30T04:26:08;9.10;;;6.00;;
53421;SDS011;39319;52.944;5.928;2022-08-30T04:28:34;7.55;;;5.53;;
53421;SDS011;39319;52.944;5.928;2022-08-30T04:31:06;9.93;;;5.93;;
53421;SDS011;39319;52.944;5.928;2022-08-30T04:33:37;8.30;;;5.70;;
53421;SDS011;39319;52.944;5.928;2022-08-30T04:36:04;8.70;;;5.38;;
53421;SDS011;39319;52.944;5.928;2022-08-30T04:38:31;7.70;;;5.50;;
53421;SDS011;39319;52.944;5.928;2022-08-30T04:40:58;8.77;;;6.10;;
53421;SDS011;39319;52.944;5.928;2022-08-30T04:43:24;8.18;;;5.32;;
53421;SDS011;39319;52.944;5.928;2022-08-30T04:45:51;9.90;;;6.15;;
53421;SDS011;39319;52.944;5.928;2022-08-30T04:48:18;9.60;;;5.95;;
53421;SDS011;39319;52.944;5.928;2022-08-30T04:50:44;9.57;;;5.78;;
53421;SDS011;39319;52.944;5.928;2022-08-30T04:53:14;9.98;;;6.35;;
53421;SDS011;39319;52.944;5.928;2022-08-30T04:55:40;8.02;;;5.88;;
53421;SDS011;39319;52.944;5.928;2022-08-30T04:58:07;8.82;;;6.03;;
53421;SDS011;39319;52.944;5.928;2022-08-30T05:00:33;8.40;;;6.20;;
53421;SDS011;39319;52.944;5.928;2022-08-30T05:02:59;9.10;;;6.03;;
53421;SDS011;39319;52.944;5.928;2022-08-30T05:05:25;9.95;;;6.30;;
53421;SDS011;39319;52.944;5.928;2022-08-30T05:08:12;8.73;;;5.35;;
53421;SDS011;39319;52.944;5.928;2022-08-30T05:10:46;10.13;;;6.28;;
53421;SDS011;39319;52.944;5.928;2022-08-30T05:13:14;9.38;;;6.35;;
53421;SDS011;39319;52.944;5.928;2022-08-30T05:15:40;8.55;;;5.93;;
53421;SDS011;39319;52.944;5.928;2022-08-30T05:18:07;8.38;;;6.30;;
53421;SDS011;39319;52.944;5.928;2022-08-30T05:20:34;9.57;;;6.27;;
53421;SDS011;39319;52.944;5.928;2022-08-30T05:23:02;9.20;;;6.10;;
53421;SDS011;39319;52.944;5.928;2022-08-30T05:25:29;9.02;;;6.40;;
53421;SDS011;39319;52.944;5.928;2022-08-30T05:27:57;8.18;;;6.25;;
53421;SDS011;39319;52.944;5.928;2022-08-30T05:30:23;9.53;;;5.93;;
53421;SDS011;39319;52.944;5.928;2022-08-30T05:32:50;8.38;;;6.22;;
53421;SDS011;39319;52.944;5.928;2022-08-30T05:35:17;10.03;;;6.57;;
53421;SDS011;39319;52.944;5.928;2022-08-30T05:37:44;8.95;;;6.00;;
53421;SDS011;39319;52.944;5.928;2022-08-30T05:40:10;8.37;;;5.80;;
53421;SDS011;39319;52.944;5.928;2022-08-30T05:42:36;9.20;;;6.60;;
53421;SDS011;39319;52.944;5.928;2022-08-30T05:45:05;8.77;;;6.10;;
53421;SDS011;39319;52.944;5.928;2022-08-30T05:47:32;8.25;;;5.75;;
53421;SDS011;39319;52.944;5.928;2022-08-30T05:49:58;8.98;;;5.70;;
53421;SDS011;39319;52.944;5.928;2022-08-30T05:52:24;10.10;;;6.43;;
53421;SDS011;39319;52.944;5.928;2022-08-30T05:54:53;8.15;;;6.03;;
53421;SDS011;39319;52.944;5.928;2022-08-30T05:57:20;11.50;;;6.10;;
53421;SDS011;39319;52.944;5.928;2022-08-30T05:59:46;10.98;;;5.93;;
53421;SDS011;39319;52.944;5.928;2022-08-30T06:02:12;9.18;;;6.40;;
53421;SDS011;39319;52.944;5.928;2022-08-30T06:04:40;9.18;;;6.18;;
53421;SDS011;39319;52.944;5.928;2022-08-30T06:07:06;10.87;;;6.20;;
53421;SDS011;39319;52.944;5.928;2022-08-30T06:09:34;10.25;;;5.90;;
53421;SDS011;39319;52.944;5.928;2022-08-30T06:12:00;9.10;;;6.07;;
53421;SDS011;39319;52.944;5.928;2022-08-30T06:14:26;8.70;;;5.15;;
53421;SDS011;39319;52.944;5.928;2022-08-30T06:16:52;8.98;;;5.75;;
53421;SDS011;39319;52.944;5.928;2022-08-30T06:19:18;10.05;;;5.90;;
53421;SDS011;39319;52.944;5.928;2022-08-30T06:21:48;8.90;;;5.53;;
53421;SDS011;39319;52.944;5.928;2022-08-30T06:24:14;9.93;;;5.60;;
53421;SDS011;39319;52.944;5.928;2022-08-30T06:26:42;10.17;;;5.77;;
53421;SDS011;39319;52.944;5.928;2022-08-30T06:29:11;10.38;;;5.78;;
53421;SDS011;39319;52.944;5.928;2022-08-30T06:31:39;9.35;;;5.78;;
53421;SDS011;39319;52.944;5.928;2022-08-30T06:34:07;9.43;;;5.97;;
53421;SDS011;39319;52.944;5.928;2022-08-30T06:36:33;8.53;;;5.53;;
53421;SDS011;39319;52.944;5.928;2022-08-30T06:39:00;10.40;;;5.88;;
53421;SDS011;39319;52.944;5.928;2022-08-30T06:41:30;11.00;;;5.57;;
53421;SDS011;39319;52.944;5.928;2022-08-30T06:43:57;9.15;;;5.43;;
53421;SDS011;39319;52.944;5.928;2022-08-30T06:46:26;11.68;;;5.78;;
53421;SDS011;39319;52.944;5.928;2022-08-30T06:48:54;9.05;;;5.65;;
53421;SDS011;39319;52.944;5.928;2022-08-30T06:51:22;10.85;;;6.03;;
53421;SDS011;39319;52.944;5.928;2022-08-30T06:53:49;10.85;;;5.40;;
53421;SDS011;39319;52.944;5.928;2022-08-30T06:56:16;7.03;;;4.90;;
53421;SDS011;39319;52.944;5.928;2022-08-30T06:58:42;9.68;;;5.32;;
53421;SDS011;39319;52.944;5.928;2022-08-30T07:01:17;10.13;;;4.68;;
53421;SDS011;39319;52.944;5.928;2022-08-30T07:03:48;10.95;;;4.72;;
53421;SDS011;39319;52.944;5.928;2022-08-30T07:06:14;8.43;;;4.38;;
53421;SDS011;39319;52.944;5.928;2022-08-30T07:08:41;7.97;;;3.65;;
53421;SDS011;39319;52.944;5.928;2022-08-30T07:11:07;7.15;;;3.92;;
53421;SDS011;39319;52.944;5.928;2022-08-30T07:13:34;11.98;;;3.85;;
53421;SDS011;39319;52.944;5.928;2022-08-30T07:16:00;8.68;;;3.63;;
53421;SDS011;39319;52.944;5.928;2022-08-30T07:18:32;8.25;;;3.75;;
53421;SDS011;39319;52.944;5.928;2022-08-30T07:21:30;8.82;;;3.40;;
53421;SDS011;39319;52.944;5.928;2022-08-30T07:23:57;8.33;;;3.40;;
53421;SDS011;39319;52.944;5.928;2022-08-30T07:26:28;9.00;;;2.90;;
53421;SDS011;39319;52.944;5.928;2022-08-30T07:28:57;8.57;;;2.95;;
53421;SDS011;39319;52.944;5.928;2022-08-30T07:31:23;7.55;;;3.10;;
53421;SDS011;39319;52.944;5.928;2022-08-30T07:33:49;5.80;;;2.50;;
53421;SDS011;39319;52.944;5.928;2022-08-30T07:36:15;7.80;;;2.80;;
53421;SDS011;39319;52.944;5.928;2022-08-30T07:38:42;7.43;;;2.30;;
53421;SDS011;39319;52.944;5.928;2022-08-30T07:41:15;6.13;;;2.40;;
53421;SDS011;39319;52.944;5.928;2022-08-30T07:43:51;6.70;;;2.45;;
53421;SDS011;39319;52.944;5.928;2022-08-30T07:46:18;5.18;;;2.15;;
53421;SDS011;39319;52.944;5.928;2022-08-30T07:48:45;5.57;;;2.10;;
53421;SDS011;39319;52.944;5.928;2022-08-30T07:51:14;6.47;;;2.20;;
53421;SDS011;39319;52.944;5.928;2022-08-30T07:53:42;7.15;;;2.20;;
53421;SDS011;39319;52.944;5.928;2022-08-30T07:56:08;6.63;;;1.95;;
53421;SDS011;39319;52.944;5.928;2022-08-30T07:58:34;5.95;;;2.30;;
53421;SDS011;39319;52.944;5.928;2022-08-30T08:01:03;6.85;;;2.20;;
53421;SDS011;39319;52.944;5.928;2022-08-30T08:03:33;6.28;;;2.15;;
53421;SDS011;39319;52.944;5.928;2022-08-30T08:06:00;7.05;;;2.05;;
53421;SDS011;39319;52.944;5.928;2022-08-30T08:08:27;6.40;;;1.88;;
53421;SDS011;39319;52.944;5.928;2022-08-30T08:10:53;8.30;;;1.95;;
53421;SDS011;39319;52.944;5.928;2022-08-30T08:13:19;7.03;;;1.73;;
53421;SDS011;39319;52.944;5.928;2022-08-30T08:15:45;11.23;;;1.98;;
53421;SDS011;39319;52.944;5.928;2022-08-30T08:18:11;6.50;;;1.88;;
53421;SDS011;39319;52.944;5.928;2022-08-30T08:20:37;6.03;;;2.38;;
53421;SDS011;39319;52.944;5.928;2022-08-30T08:23:03;6.33;;;1.83;;
53421;SDS011;39319;52.944;5.928;2022-08-30T08:25:29;8.48;;;2.03;;
53421;SDS011;39319;52.944;5.928;2022-08-30T08:27:55;6.55;;;1.80;;
53421;SDS011;39319;52.944;5.928;2022-08-30T08:30:23;4.82;;;1.70;;
53421;SDS011;39319;52.944;5.928;2022-08-30T08:32:49;5.72;;;1.60;;
53421;SDS011;39319;52.944;5.928;2022-08-30T08:35:16;7.38;;;1.80;;
53421;SDS011;39319;52.944;5.928;2022-08-30T08:37:42;5.63;;;1.75;;
53421;SDS011;39319;52.944;5.928;2022-08-30T08:40:08;6.20;;;1.80;;
53421;SDS011;39319;52.944;5.928;2022-08-30T08:42:50;6.25;;;1.90;;
53421;SDS011;39319;52.944;5.928;2022-08-30T08:48:56;7.22;;;2.10;;
53421;SDS011;39319;52.944;5.928;2022-08-30T08:51:26;10.65;;;2.53;;
53421;SDS011;39319;52.944;5.928;2022-08-30T08:57:06;5.72;;;1.90;;
53421;SDS011;39319;52.944;5.928;2022-08-30T08:59:33;5.93;;;1.77;;
53421;SDS011;39319;52.944;5.928;2022-08-30T09:01:59;6.40;;;1.77;;
53421;SDS011;39319;52.944;5.928;2022-08-30T09:04:32;5.38;;;1.58;;
53421;SDS011;39319;52.944;5.928;2022-08-30T09:07:42;6.55;;;2.00;;
53421;SDS011;39319;52.944;5.928;2022-08-30T09:09:51;6.88;;;1.75;;
53421;SDS011;39319;52.944;5.928;2022-08-30T09:12:17;6.07;;;1.75;;
53421;SDS011;39319;52.944;5.928;2022-08-30T09:14:45;5.23;;;1.70;;
53421;SDS011;39319;52.944;5.928;2022-08-30T09:17:14;5.90;;;1.88;;
53421;SDS011;39319;52.944;5.928;2022-08-30T09:19:43;7.53;;;1.90;;
53421;SDS011;39319;52.944;5.928;2022-08-30T09:22:12;4.95;;;1.73;;
53421;SDS011;39319;52.944;5.928;2022-08-30T09:25:28;5.30;;;1.60;;
53421;SDS011;39319;52.944;5.928;2022-08-30T09:28:07;6.50;;;1.90;;
53421;SDS011;39319;52.944;5.928;2022-08-30T09:30:37;5.10;;;1.55;;
53421;SDS011;39319;52.944;5.928;2022-08-30T09:33:05;5.57;;;1.55;;
53421;SDS011;39319;52.944;5.928;2022-08-30T09:35:43;6.03;;;1.70;;
53421;SDS011;39319;52.944;5.928;2022-08-30T09:38:32;5.65;;;1.50;;
53421;SDS011;39319;52.944;5.928;2022-08-30T09:40:59;6.00;;;1.77;;
53421;SDS011;39319;52.944;5.928;2022-08-30T09:43:46;6.68;;;1.50;;
53421;SDS011;39319;52.944;5.928;2022-08-30T09:46:30;6.82;;;1.60;;
53421;SDS011;39319;52.944;5.928;2022-08-30T09:49:00;5.97;;;1.67;;
53421;SDS011;39319;52.944;5.928;2022-08-30T09:51:42;5.20;;;1.50;;
53421;SDS011;39319;52.944;5.928;2022-08-30T09:54:24;5.05;;;1.60;;
53421;SDS011;39319;52.944;5.928;2022-08-30T09:57:06;5.35;;;1.60;;
53421;SDS011;39319;52.944;5.928;2022-08-30T09:59:47;4.38;;;1.48;;
53421;SDS011;39319;52.944;5.928;2022-08-30T10:10:50;4.35;;;1.40;;
53421;SDS011;39319;52.944;5.928;2022-08-30T10:16:16;4.22;;;1.20;;
53421;SDS011;39319;52.944;5.928;2022-08-30T10:21:42;4.68;;;1.40;;
53421;SDS011;39319;52.944;5.928;2022-08-30T10:24:12;5.40;;;1.42;;
53421;SDS011;39319;52.944;5.928;2022-08-30T10:34:48;4.32;;;1.20;;
53421;SDS011;39319;52.944;5.928;2022-08-30T10:37:23;7.05;;;1.30;;
53421;SDS011;39319;52.944;5.928;2022-08-30T10:39:58;5.70;;;1.40;;
53421;SDS011;39319;52.944;5.928;2022-08-30T10:42:49;4.80;;;1.25;;
53421;SDS011;39319;52.944;5.928;2022-08-30T10:45:17;5.32;;;1.50;;
53421;SDS011;39319;52.944;5.928;2022-08-30T10:50:33;4.95;;;1.30;;
53421;SDS011;39319;52.944;5.928;2022-08-30T10:55:59;4.68;;;1.30;;
53421;SDS011;39319;52.944;5.928;2022-08-30T10:58:42;5.70;;;1.50;;
53421;SDS011;39319;52.944;5.928;2022-08-30T11:03:39;5.30;;;1.60;;
53421;SDS011;39319;52.944;5.928;2022-08-30T11:12:15;6.50;;;1.60;;
53421;SDS011;39319;52.944;5.928;2022-08-30T11:14:45;5.00;;;1.20;;
53421;SDS011;39319;52.944;5.928;2022-08-30T11:19:52;5.15;;;1.25;;
53421;SDS011;39319;52.944;5.928;2022-08-30T11:22:28;5.63;;;1.43;;
53421;SDS011;39319;52.944;5.928;2022-08-30T11:25:03;5.50;;;1.23;;
53421;SDS011;39319;52.944;5.928;2022-08-30T11:33:26;6.03;;;1.17;;
53421;SDS011;39319;52.944;5.928;2022-08-30T11:35:53;3.75;;;1.13;;
53421;SDS011;39319;52.944;5.928;2022-08-30T11:44:02;4.22;;;0.90;;
53421;SDS011;39319;52.944;5.928;2022-08-30T11:46:16;4.32;;;1.27;;
53421;SDS011;39319;52.944;5.928;2022-08-30T11:49:05;3.65;;;1.10;;
53421;SDS011;39319;52.944;5.928;2022-08-30T11:57:17;4.33;;;1.43;;
53421;SDS011;39319;52.944;5.928;2022-08-30T12:10:59;4.28;;;1.02;;
53421;SDS011;39319;52.944;5.928;2022-08-30T12:19:18;7.82;;;1.10;;
53421;SDS011;39319;52.944;5.928;2022-08-30T12:23:56;3.67;;;0.90;;
53421;SDS011;39319;52.944;5.928;2022-08-30T12:28:49;3.87;;;1.07;;
53421;SDS011;39319;52.944;5.928;2022-08-30T12:31:40;4.72;;;1.10;;
53421;SDS011;39319;52.944;5.928;2022-08-30T12:34:15;5.10;;;0.90;;
53421;SDS011;39319;52.944;5.928;2022-08-30T12:37:03;4.05;;;1.25;;
53421;SDS011;39319;52.944;5.928;2022-08-30T12:39:34;5.13;;;1.30;;
53421;SDS011;39319;52.944;5.928;2022-08-30T12:44:42;11.10;;;1.25;;
53421;SDS011;39319;52.944;5.928;2022-08-30T12:47:09;3.83;;;1.10;;
53421;SDS011;39319;52.944;5.928;2022-08-30T12:49:38;3.25;;;0.90;;
53421;SDS011;39319;52.944;5.928;2022-08-30T12:52:14;4.28;;;1.10;;
53421;SDS011;39319;52.944;5.928;2022-08-30T12:55:12;3.67;;;0.93;;
53421;SDS011;39319;52.944;5.928;2022-08-30T12:57:40;3.58;;;1.00;;
53421;SDS011;39319;52.944;5.928;2022-08-30T13:00:24;3.95;;;0.90;;
53421;SDS011;39319;52.944;5.928;2022-08-30T13:05:56;4.88;;;1.08;;
53421;SDS011;39319;52.944;5.928;2022-08-30T13:08:31;5.15;;;1.02;;
53421;SDS011;39319;52.944;5.928;2022-08-30T13:11:07;5.00;;;1.17;;
53421;SDS011;39319;52.944;5.928;2022-08-30T13:13:36;5.97;;;1.33;;
53421;SDS011;39319;52.944;5.928;2022-08-30T13:16:08;4.45;;;1.02;;
53421;SDS011;39319;52.944;5.928;2022-08-30T13:18:37;3.97;;;1.08;;
53421;SDS011;39319;52.944;5.928;2022-08-30T13:24:02;4.97;;;0.98;;
53421;SDS011;39319;52.944;5.928;2022-08-30T13:26:31;4.70;;;0.93;;
53421;SDS011;39319;52.944;5.928;2022-08-30T13:29:00;3.95;;;1.00;;
53421;SDS011;39319;52.944;5.928;2022-08-30T13:31:28;4.28;;;1.00;;
53421;SDS011;39319;52.944;5.928;2022-08-30T13:33:54;3.80;;;1.10;;
53421;SDS011;39319;52.944;5.928;2022-08-30T13:36:25;4.13;;;0.90;;
53421;SDS011;39319;52.944;5.928;2022-08-30T13:38:54;6.22;;;1.10;;
53421;SDS011;39319;52.944;5.928;2022-08-30T13:41:20;6.32;;;1.20;;
53421;SDS011;39319;52.944;5.928;2022-08-30T13:43:46;8.23;;;1.30;;
53421;SDS011;39319;52.944;5.928;2022-08-30T13:46:12;5.00;;;1.23;;
53421;SDS011;39319;52.944;5.928;2022-08-30T13:48:40;3.65;;;0.85;;
53421;SDS011;39319;52.944;5.928;2022-08-30T13:51:06;3.75;;;0.90;;
53421;SDS011;39319;52.944;5.928;2022-08-30T13:53:33;4.70;;;1.10;;
53421;SDS011;39319;52.944;5.928;2022-08-30T13:56:00;3.78;;;0.90;;
53421;SDS011;39319;52.944;5.928;2022-08-30T13:58:28;4.75;;;0.95;;
53421;SDS011;39319;52.944;5.928;2022-08-30T14:00:54;3.17;;;0.85;;
53421;SDS011;39319;52.944;5.928;2022-08-30T14:03:20;3.37;;;0.87;;
53421;SDS011;39319;52.944;5.928;2022-08-30T14:05:46;3.08;;;0.85;;
53421;SDS011;39319;52.944;5.928;2022-08-30T14:08:13;3.35;;;0.90;;
53421;SDS011;39319;52.944;5.928;2022-08-30T14:10:41;3.72;;;0.98;;
53421;SDS011;39319;52.944;5.928;2022-08-30T14:13:07;3.55;;;0.88;;
53421;SDS011;39319;52.944;5.928;2022-08-30T14:15:36;5.10;;;0.95;;
53421;SDS011;39319;52.944;5.928;2022-08-30T14:18:03;4.70;;;1.20;;
53421;SDS011;39319;52.944;5.928;2022-08-30T14:20:30;4.07;;;1.17;;
53421;SDS011;39319;52.944;5.928;2022-08-30T14:22:56;4.90;;;0.80;;
53421;SDS011;39319;52.944;5.928;2022-08-30T14:25:22;3.78;;;0.90;;
53421;SDS011;39319;52.944;5.928;2022-08-30T14:27:48;3.00;;;0.70;;
53421;SDS011;39319;52.944;5.928;2022-08-30T14:30:14;3.15;;;0.90;;
53421;SDS011;39319;52.944;5.928;2022-08-30T14:32:40;4.40;;;1.00;;
53421;SDS011;39319;52.944;5.928;2022-08-30T14:35:06;3.83;;;1.00;;
53421;SDS011;39319;52.944;5.928;2022-08-30T14:37:32;3.92;;;1.10;;
53421;SDS011;39319;52.944;5.928;2022-08-30T14:39:57;4.30;;;1.00;;
53421;SDS011;39319;52.944;5.928;2022-08-30T14:42:23;4.20;;;1.10;;
53421;SDS011;39319;52.944;5.928;2022-08-30T14:44:49;4.38;;;1.00;;
53421;SDS011;39319;52.944;5.928;2022-08-30T14:47:15;4.03;;;0.80;;
53421;SDS011;39319;52.944;5.928;2022-08-30T14:49:41;3.85;;;0.88;;
53421;SDS011;39319;52.944;5.928;2022-08-30T14:52:07;3.33;;;0.90;;
53421;SDS011;39319;52.944;5.928;2022-08-30T14:54:33;4.33;;;1.00;;
53421;SDS011;39319;52.944;5.928;2022-08-30T14:56:59;5.38;;;1.60;;
53421;SDS011;39319;52.944;5.928;2022-08-30T14:59:25;4.43;;;1.17;;
53421;SDS011;39319;52.944;5.928;2022-08-30T15:01:51;5.93;;;1.30;;
53421;SDS011;39319;52.944;5.928;2022-08-30T15:04:17;4.57;;;1.15;;
53421;SDS011;39319;52.944;5.928;2022-08-30T15:06:44;5.65;;;1.00;;
53421;SDS011;39319;52.944;5.928;2022-08-30T15:09:13;3.28;;;1.00;;
53421;SDS011;39319;52.944;5.928;2022-08-30T15:11:42;3.80;;;0.90;;
53421;SDS011;39319;52.944;5.928;2022-08-30T15:14:09;3.58;;;0.98;;
53421;SDS011;39319;52.944;5.928;2022-08-30T15:16:36;4.80;;;1.00;;
53421;SDS011;39319;52.944;5.928;2022-08-30T15:19:04;5.57;;;1.00;;
53421;SDS011;39319;52.944;5.928;2022-08-30T15:21:32;3.42;;;0.77;;
53421;SDS011;39319;52.944;5.928;2022-08-30T15:24:01;4.57;;;1.00;;
53421;SDS011;39319;52.944;5.928;2022-08-30T15:26:27;5.85;;;1.20;;
53421;SDS011;39319;52.944;5.928;2022-08-30T15:28:53;3.63;;;0.93;;
53421;SDS011;39319;52.944;5.928;2022-08-30T15:31:21;5.35;;;1.20;;
53421;SDS011;39319;52.944;5.928;2022-08-30T15:33:48;4.40;;;1.20;;
53421;SDS011;39319;52.944;5.928;2022-08-30T15:36:14;3.70;;;1.00;;
53421;SDS011;39319;52.944;5.928;2022-08-30T15:38:44;3.58;;;0.90;;
53421;SDS011;39319;52.944;5.928;2022-08-30T15:41:10;5.65;;;1.10;;
53421;SDS011;39319;52.944;5.928;2022-08-30T15:43:37;3.15;;;0.95;;
53421;SDS011;39319;52.944;5.928;2022-08-30T15:48:47;3.92;;;0.90;;
53421;SDS011;39319;52.944;5.928;2022-08-30T15:51:15;4.43;;;1.02;;
53421;SDS011;39319;52.944;5.928;2022-08-30T15:53:42;11.23;;;1.40;;
53421;SDS011;39319;52.944;5.928;2022-08-30T15:56:09;4.95;;;1.00;;
53421;SDS011;39319;52.944;5.928;2022-08-30T15:58:35;5.05;;;1.33;;
53421;SDS011;39319;52.944;5.928;2022-08-30T16:01:02;5.47;;;1.40;;
53421;SDS011;39319;52.944;5.928;2022-08-30T16:03:29;5.93;;;1.30;;
53421;SDS011;39319;52.944;5.928;2022-08-30T16:05:56;4.85;;;1.20;;
53421;SDS011;39319;52.944;5.928;2022-08-30T16:08:23;7.35;;;1.25;;
53421;SDS011;39319;52.944;5.928;2022-08-30T16:10:51;8.75;;;1.60;;
53421;SDS011;39319;52.944;5.928;2022-08-30T16:13:17;3.53;;;1.08;;
53421;SDS011;39319;52.944;5.928;2022-08-30T16:15:43;6.30;;;1.67;;
53421;SDS011;39319;52.944;5.928;2022-08-30T16:18:10;4.70;;;1.17;;
53421;SDS011;39319;52.944;5.928;2022-08-30T16:20:38;3.90;;;0.82;;
53421;SDS011;39319;52.944;5.928;2022-08-30T16:23:05;5.97;;;1.25;;
53421;SDS011;39319;52.944;5.928;2022-08-30T16:25:34;5.03;;;1.30;;
53421;SDS011;39319;52.944;5.928;2022-08-30T16:28:01;5.03;;;1.20;;
53421;SDS011;39319;52.944;5.928;2022-08-30T16:30:28;11.23;;;1.30;;
53421;SDS011;39319;52.944;5.928;2022-08-30T16:32:54;4.50;;;1.10;;